createdAt,value
2022-10-12T00:01:44.864Z,98993.30
2022-10-12T00:05:06.032Z,98996.02
2022-10-12T00:08:46.327Z,98993.27
2022-10-12T00:12:21.169Z,98992.55
2022-10-12T00:16:19.083Z,98994.02
2022-10-12T00:19:59.181Z,98993.70
2022-10-12T00:23:19.969Z,98989.61
2022-10-12T00:26:57.839Z,98989.49
2022-10-12T00:30:39.300Z,98997.60
2022-10-12T00:34:13.121Z,98997.39
2022-10-12T00:37:55.005Z,98997.61
2022-10-12T00:41:32.924Z,99000.39
2022-10-12T00:45:26.554Z,98999.63
2022-10-12T00:48:54.110Z,99001.40
2022-10-12T00:52:31.652Z,99002.68
2022-10-12T00:56:07.137Z,99004.50
2022-10-12T00:59:52.872Z,99000.30
2022-10-12T01:03:22.347Z,98997.57
2022-10-12T01:07:14.723Z,99002.67
2022-10-12T01:10:35.776Z,98997.30
2022-10-12T01:14:32.345Z,98993.92
2022-10-12T01:18:16.206Z,98994.83
2022-10-12T01:22:02.714Z,98996.77
2022-10-12T01:25:41.936Z,98996.31
2022-10-12T01:29:15.969Z,99000.01
2022-10-12T01:33:15.725Z,98998.34
2022-10-12T01:37:15.276Z,99005.95
2022-10-12T01:40:42.329Z,99003.81
2022-10-12T01:44:32.444Z,99001.71
2022-10-12T01:48:17.041Z,99002.98
2022-10-12T01:52:21.346Z,99000.30
2022-10-12T01:55:56.261Z,99002.17
2022-10-12T01:59:37.365Z,99001.10
2022-10-12T02:03:17.966Z,98999.56
2022-10-12T02:06:46.230Z,99001.46
2022-10-12T02:10:26.613Z,98996.02
2022-10-12T02:14:00.286Z,99004.15
2022-10-12T02:17:35.011Z,99002.00
2022-10-12T02:21:15.990Z,99004.90
2022-10-12T02:24:52.785Z,99002.85
2022-10-12T02:28:30.017Z,99002.70
2022-10-12T02:32:37.550Z,99002.77
2022-10-12T02:36:16.921Z,99004.05
2022-10-12T02:39:47.984Z,99008.08
2022-10-12T02:43:44.043Z,99006.48
2022-10-12T02:47:08.544Z,99008.52
2022-10-12T02:51:02.930Z,99005.55
2022-10-12T02:54:24.435Z,99006.16
2022-10-12T02:58:01.871Z,99006.23
2022-10-12T03:01:39.700Z,99002.02
2022-10-12T03:05:17.334Z,99004.52
2022-10-12T03:08:57.223Z,99008.18
2022-10-12T03:12:32.592Z,99008.31
2022-10-12T03:16:29.397Z,99008.45
2022-10-12T03:20:09.767Z,99007.80
2022-10-12T03:23:49.207Z,99003.60
2022-10-12T03:27:09.943Z,99004.02
2022-10-12T03:31:06.562Z,99003.13
2022-10-12T03:34:46.284Z,99002.23
2022-10-12T03:38:25.760Z,99011.25
2022-10-12T03:41:46.803Z,99014.69
2022-10-12T03:45:43.410Z,99008.82
2022-10-12T03:49:04.599Z,99003.41
2022-10-12T03:52:42.212Z,99006.36
2022-10-12T03:56:38.704Z,99007.51
2022-10-12T04:00:18.749Z,99008.17
2022-10-12T04:03:58.166Z,99008.27
2022-10-12T04:07:19.331Z,99013.90
2022-10-12T04:10:56.658Z,99016.38
2022-10-12T04:14:53.069Z,99015.45
2022-10-12T04:18:13.693Z,99015.52
2022-10-12T04:21:51.277Z,99010.45
2022-10-12T04:25:30.265Z,99011.58
2022-10-12T04:29:06.567Z,99009.02
2022-10-12T04:33:03.370Z,99015.23
2022-10-12T04:36:24.848Z,99018.06
2022-10-12T04:40:02.119Z,99020.91
2022-10-12T04:43:39.470Z,99022.94
2022-10-12T04:47:17.242Z,99019.66
2022-10-12T04:50:54.763Z,99024.79
2022-10-12T04:54:33.030Z,99029.16
2022-10-12T04:58:10.263Z,99029.84
2022-10-12T05:01:47.939Z,99026.00
2022-10-12T05:05:44.872Z,99028.98
2022-10-12T05:09:24.335Z,99030.05
2022-10-12T05:12:44.858Z,99033.32
2022-10-12T05:16:22.558Z,99031.40
2022-10-12T05:20:19.019Z,99037.43
2022-10-12T05:23:59.009Z,99043.39
2022-10-12T05:27:19.877Z,99042.53
2022-10-12T05:31:16.294Z,99043.27
2022-10-12T05:34:37.458Z,99047.13
2022-10-12T05:38:15.171Z,99047.70
2022-10-12T05:42:11.827Z,99046.32
2022-10-12T05:45:51.487Z,99047.79
2022-10-12T05:49:12.028Z,99043.35
2022-10-12T05:52:49.616Z,99042.66
2022-10-12T05:56:27.343Z,99049.63
2022-10-12T06:00:23.703Z,99052.73
2022-10-12T06:03:44.143Z,99056.27
2022-10-12T06:07:21.918Z,99053.88
2022-10-12T06:11:18.417Z,99056.27
2022-10-12T06:14:39.513Z,99058.00
2022-10-12T06:18:18.348Z,99055.92
2022-10-12T06:21:54.971Z,99059.35
2022-10-12T06:25:52.056Z,99055.56
2022-10-12T06:29:12.901Z,99052.52
2022-10-12T06:32:50.488Z,99058.61
2022-10-12T06:36:28.179Z,99059.17
2022-10-12T06:40:06.612Z,99059.98
2022-10-12T06:43:43.670Z,99063.34
2022-10-12T06:47:21.362Z,99062.02
2022-10-12T06:51:18.250Z,99067.80
2022-10-12T06:54:38.841Z,99065.11
2022-10-12T06:58:35.592Z,99071.33
2022-10-12T07:02:15.593Z,99070.29
2022-10-12T07:05:36.571Z,99068.19
2022-10-12T07:09:14.499Z,99068.14
2022-10-12T07:13:10.588Z,99068.05
2022-10-12T07:16:31.243Z,99069.55
2022-10-12T07:20:09.035Z,99071.38
2022-10-12T07:24:05.906Z,99070.83
2022-10-12T07:27:29.649Z,99070.74
2022-10-12T07:31:26.609Z,99068.59
2022-10-12T07:34:47.499Z,99068.16
2022-10-12T07:38:25.123Z,99066.58
2022-10-12T07:42:02.999Z,99066.14
2022-10-12T07:45:41.454Z,99066.33
2022-10-12T07:49:37.011Z,99064.83
2022-10-12T07:53:00.563Z,99055.74
2022-10-12T07:56:35.955Z,99060.80
2022-10-12T08:00:13.668Z,99057.38
2022-10-12T08:03:51.109Z,99057.58
2022-10-12T08:07:28.383Z,99051.08
2022-10-12T08:11:07.209Z,99050.92
2022-10-12T08:14:43.694Z,99053.04
2022-10-12T08:18:21.362Z,99052.94
2022-10-12T08:21:59.207Z,99051.73
2022-10-12T08:25:38.116Z,99048.82
2022-10-12T08:29:14.509Z,99050.20
2022-10-12T08:32:52.046Z,99051.07
2022-10-12T08:36:30.543Z,99047.39
2022-10-12T08:40:31.448Z,99050.55
2022-10-12T08:44:17.073Z,99050.34
2022-10-12T08:47:42.996Z,99047.02
2022-10-12T08:51:22.761Z,99054.00
2022-10-12T08:54:55.110Z,99054.09
2022-10-12T08:58:51.825Z,99053.30
2022-10-12T09:02:44.430Z,99050.55
2022-10-12T09:06:19.707Z,99053.15
2022-10-12T09:09:48.957Z,99053.00
2022-10-12T09:13:47.473Z,99052.05
2022-10-12T09:17:22.228Z,99049.30
2022-10-12T09:20:49.367Z,99044.63
2022-10-12T09:24:27.147Z,99041.27
2022-10-12T09:28:25.682Z,99037.41
2022-10-12T09:32:18.690Z,99036.79
2022-10-12T09:36:02.820Z,99038.64
2022-10-12T09:39:32.958Z,99031.73
2022-10-12T09:43:20.238Z,99034.02
2022-10-12T09:46:45.736Z,99033.73
2022-10-12T09:50:40.216Z,99035.47
2022-10-12T09:54:03.973Z,99030.97
2022-10-12T09:57:42.271Z,99030.98
2022-10-12T10:01:21.839Z,99035.69
2022-10-12T10:04:55.589Z,99037.18
2022-10-12T10:08:51.531Z,99036.31
2022-10-12T10:12:27.367Z,99038.45
2022-10-12T10:15:52.310Z,99038.23
2022-10-12T10:19:57.532Z,99035.60
2022-10-12T10:23:42.431Z,99035.19
2022-10-12T10:27:06.161Z,99035.65
2022-10-12T10:30:42.421Z,99034.66
2022-10-12T10:34:22.814Z,99030.61
2022-10-12T10:37:59.368Z,99031.70
2022-10-12T10:41:43.233Z,99029.07
2022-10-12T10:45:26.545Z,99027.72
2022-10-12T10:49:34.983Z,99032.96
2022-10-12T10:53:26.638Z,99030.56
2022-10-12T10:56:50.619Z,99025.29
2022-10-12T11:00:41.257Z,99025.83
2022-10-12T11:04:19.440Z,99021.48
2022-10-12T11:08:04.736Z,99019.87
2022-10-12T11:11:53.404Z,99022.05
2022-10-12T11:15:42.450Z,99021.06
2022-10-12T11:19:20.579Z,99012.98
2022-10-12T11:22:53.216Z,99015.32
2022-10-12T11:26:26.576Z,99010.46
2022-10-12T11:30:23.413Z,99007.11
2022-10-12T11:33:45.840Z,99009.90
2022-10-12T11:37:30.068Z,99000.88
2022-10-12T11:41:31.037Z,98998.20
2022-10-12T11:44:48.796Z,98994.69
2022-10-12T11:49:11.964Z,98996.43
2022-10-12T11:52:54.681Z,99000.15
2022-10-12T11:56:29.503Z,98990.33
2022-10-12T11:59:59.254Z,98988.10
2022-10-12T12:03:45.706Z,98988.16
2022-10-12T12:07:45.767Z,98991.35
2022-10-12T12:11:29.796Z,98989.91
2022-10-12T12:14:53.776Z,98988.58
2022-10-12T12:18:31.686Z,98985.69
2022-10-12T12:22:31.907Z,98983.11
2022-10-12T12:26:15.842Z,98981.86
2022-10-12T12:29:53.701Z,98978.33
2022-10-12T12:33:27.264Z,98979.18
2022-10-12T12:37:22.217Z,98976.41
2022-10-12T12:41:02.683Z,98975.77
2022-10-12T12:44:44.770Z,98982.70
2022-10-12T12:48:10.734Z,98980.38
2022-10-12T12:51:44.918Z,98980.18
2022-10-12T12:55:40.688Z,98977.63
2022-10-12T12:59:33.119Z,98975.93
2022-10-12T13:03:03.522Z,98970.21
2022-10-12T13:07:06.827Z,98969.80
2022-10-12T13:10:51.190Z,98969.76
2022-10-12T13:14:43.765Z,98962.06
2022-10-12T13:18:45.757Z,98961.66
2022-10-12T13:22:19.175Z,98960.30
2022-10-12T13:26:07.917Z,98963.33
2022-10-12T13:29:59.687Z,98966.52
2022-10-12T13:33:32.276Z,98960.80
2022-10-12T13:37:09.672Z,98961.95
2022-10-12T13:40:42.962Z,98960.13
2022-10-12T13:44:25.184Z,98956.40
2022-10-12T13:47:51.632Z,98956.59
2022-10-12T13:51:31.173Z,98951.48
2022-10-12T13:55:16.688Z,98952.42
2022-10-12T13:58:44.912Z,98952.86
2022-10-12T14:02:43.587Z,98950.14
2022-10-12T14:06:05.197Z,98952.23
2022-10-12T14:09:45.866Z,98949.89
2022-10-12T14:13:33.110Z,98942.38
2022-10-12T14:16:57.547Z,98941.04
2022-10-12T14:20:41.193Z,98938.73
2022-10-12T14:24:18.226Z,98940.09
2022-10-12T14:27:56.326Z,98937.75
2022-10-12T14:31:49.880Z,98938.61
2022-10-12T14:35:38.266Z,98933.17
2022-10-12T14:39:13.273Z,98929.77
2022-10-12T14:42:36.589Z,98921.36
2022-10-12T14:46:35.622Z,98914.04
2022-10-12T14:49:59.992Z,98913.84
2022-10-12T14:53:34.011Z,98912.11
2022-10-12T14:57:16.725Z,98905.79
2022-10-12T15:01:08.243Z,98907.08
2022-10-12T15:04:29.119Z,98906.05
2022-10-12T15:08:10.014Z,98906.75
2022-10-12T15:11:44.510Z,98909.73
2022-10-12T15:15:42.359Z,98908.58
2022-10-12T15:19:22.861Z,98907.30
2022-10-12T15:22:45.022Z,98908.80
2022-10-12T15:26:21.378Z,98910.19
2022-10-12T15:30:18.177Z,98916.02
2022-10-12T15:33:40.433Z,98914.90
2022-10-12T15:37:16.960Z,98913.64
2022-10-12T15:40:58.064Z,98907.73
2022-10-12T15:44:50.628Z,98907.97
2022-10-12T15:48:11.315Z,98911.04
2022-10-12T15:52:10.747Z,98913.52
2022-10-12T15:55:34.418Z,98914.76
2022-10-12T15:59:28.198Z,98917.05
2022-10-12T16:03:14.565Z,98922.39
2022-10-12T16:06:54.046Z,98923.10
2022-10-12T16:10:16.804Z,98920.42
2022-10-12T16:14:13.879Z,98918.81
2022-10-12T16:17:53.692Z,98924.80
2022-10-12T16:21:32.947Z,98924.76
2022-10-12T16:24:53.550Z,98923.75
2022-10-12T16:28:50.109Z,98927.88
2022-10-12T16:32:11.492Z,98932.20
2022-10-12T16:35:48.929Z,98933.33
2022-10-12T16:39:45.616Z,98929.73
2022-10-12T16:43:06.635Z,98936.30
2022-10-12T16:46:44.442Z,98928.23
2022-10-12T16:50:40.654Z,98926.95
2022-10-12T16:54:01.538Z,98926.84
2022-10-12T16:57:58.015Z,98929.44
2022-10-12T17:01:18.663Z,98929.61
2022-10-12T17:05:14.894Z,98927.72
2022-10-12T17:08:36.875Z,98929.61
2022-10-12T17:12:13.659Z,98931.19
2022-10-12T17:16:28.692Z,98930.91
2022-10-12T17:19:49.465Z,98934.14
2022-10-12T17:23:45.956Z,98927.36
2022-10-12T17:27:08.695Z,98928.96
2022-10-12T17:31:07.931Z,98928.90
2022-10-12T17:34:34.537Z,98929.14
2022-10-12T17:38:08.846Z,98927.17
2022-10-12T17:41:47.155Z,98925.75
2022-10-12T17:45:24.073Z,98922.48
2022-10-12T17:49:03.713Z,98918.29
2022-10-12T17:52:39.774Z,98917.61
2022-10-12T17:56:36.298Z,98918.20
2022-10-12T17:59:57.182Z,98916.55
2022-10-12T18:03:36.899Z,98922.20
2022-10-12T18:07:13.780Z,98915.77
2022-10-12T18:11:09.393Z,98917.80
2022-10-12T18:14:29.950Z,98919.81
2022-10-12T18:18:10.526Z,98917.42
2022-10-12T18:21:45.404Z,98914.74
2022-10-12T18:25:23.107Z,98918.30
2022-10-12T18:29:01.973Z,98915.61
2022-10-12T18:32:38.373Z,98918.48
2022-10-12T18:36:18.447Z,98921.45
2022-10-12T18:39:53.831Z,98922.62
2022-10-12T18:43:32.633Z,98920.91
2022-10-12T18:47:12.198Z,98919.11
2022-10-12T18:51:08.923Z,98921.16
2022-10-12T18:54:29.564Z,98919.61
2022-10-12T18:58:12.673Z,98920.42
2022-10-12T19:01:45.501Z,98922.40
2022-10-12T19:05:41.379Z,98920.70
2022-10-12T19:09:20.639Z,98919.70
2022-10-12T19:12:45.496Z,98924.31
2022-10-12T19:16:37.370Z,98921.52
2022-10-12T19:20:01.876Z,98920.79
2022-10-12T19:23:35.505Z,98925.73
2022-10-12T19:27:13.135Z,98925.08
2022-10-12T19:30:51.687Z,98929.39
2022-10-12T19:34:28.952Z,98930.90
2022-10-12T19:38:25.700Z,98932.70
2022-10-12T19:42:05.299Z,98935.75
2022-10-12T19:45:26.059Z,98935.32
2022-10-12T19:49:22.664Z,98934.05
2022-10-12T19:52:50.416Z,98937.44
2022-10-12T19:56:34.043Z,98938.36
2022-10-12T19:59:58.260Z,98934.75
2022-10-12T20:03:38.558Z,98934.71
2022-10-12T20:07:13.737Z,98934.17
2022-10-12T20:10:52.391Z,98928.25
2022-10-12T20:14:31.070Z,98927.77
2022-10-12T20:18:29.041Z,98929.40
2022-10-12T20:21:49.416Z,98928.02
2022-10-12T20:25:27.342Z,98927.17
2022-10-12T20:29:23.594Z,98924.17
2022-10-12T20:32:44.082Z,98930.91
2022-10-12T20:36:24.338Z,98929.55
2022-10-12T20:39:59.473Z,98932.17
2022-10-12T20:43:40.465Z,98932.63
2022-10-12T20:47:14.760Z,98935.89
2022-10-12T20:50:52.384Z,98938.44
2022-10-12T20:54:30.458Z,98932.70
2022-10-12T20:58:07.728Z,98928.51
2022-10-12T21:01:45.739Z,98930.45
2022-10-12T21:05:23.128Z,98925.46
2022-10-12T21:09:01.155Z,98924.16
2022-10-12T21:12:38.442Z,98922.92
2022-10-12T21:16:19.347Z,98924.80
2022-10-12T21:19:53.921Z,98928.03
2022-10-12T21:23:31.546Z,98921.77
2022-10-12T21:27:09.072Z,98922.08
2022-10-12T21:31:12.114Z,98920.84
2022-10-12T21:34:52.982Z,98924.25
2022-10-12T21:38:13.613Z,98927.52
2022-10-12T21:42:09.995Z,98927.89
2022-10-12T21:45:49.162Z,98929.48
2022-10-12T21:49:10.835Z,98929.18
2022-10-12T21:52:50.140Z,98929.31
2022-10-12T21:56:29.790Z,98923.58
2022-10-12T22:00:04.599Z,98922.37
2022-10-12T22:04:12.810Z,98918.86
2022-10-12T22:07:33.716Z,98917.80
2022-10-12T22:11:12.798Z,98917.30
2022-10-12T22:14:49.237Z,98917.88
2022-10-12T22:18:26.662Z,98917.98
2022-10-12T22:22:04.782Z,98917.49
2022-10-12T22:25:42.256Z,98921.13
2022-10-12T22:29:38.814Z,98922.48
2022-10-12T22:32:59.388Z,98921.16
2022-10-12T22:36:37.149Z,98915.81
2022-10-12T22:40:14.955Z,98910.92
2022-10-12T22:44:11.407Z,98910.03
2022-10-12T22:47:32.230Z,98903.33
2022-10-12T22:51:14.898Z,98904.20
2022-10-12T22:54:47.949Z,98901.69
2022-10-12T22:58:25.809Z,98899.86
2022-10-12T23:02:03.503Z,98902.41
2022-10-12T23:05:59.706Z,98896.23
2022-10-12T23:09:20.870Z,98896.41
2022-10-12T23:12:58.516Z,98899.65
2022-10-12T23:16:54.966Z,98899.95
2022-10-12T23:20:18.088Z,98897.41
2022-10-12T23:23:54.355Z,98901.84
2022-10-12T23:27:50.762Z,98897.41
2022-10-12T23:31:30.950Z,98898.79
2022-10-12T23:35:10.852Z,98895.11
2022-10-12T23:38:33.057Z,98894.30
2022-10-12T23:42:27.958Z,98891.36
2022-10-12T23:45:48.565Z,98893.58
2022-10-12T23:49:26.194Z,98896.83
2022-10-12T23:53:03.882Z,98898.18
2022-10-12T23:57:00.501Z,98897.18
